Time;durP1;ratioP1;P1;durP2;ratioP2;P2;SDS_P1;SDS_P2;PMS_P1;PMS_P2;Temp;Humidity;BMP_temperature;BMP_pressure;BME280_temperature;BME280_humidity;BME280_pressure;Samples;Min_cycle;Max_cycle;Signal;HPM_P1;HPM_P2
2023/03/17 10:56:10;;;;;;;6.85;4.60;;;;;;;;;;1048791;24;20336;-87
2023/03/17 10:58:41;;;;;;;8.30;4.20;;;;;;;;;;4738302;30;20121;-91
2023/03/17 11:01:17;;;;;;;;;;;;;;;;;;;;;
2023/03/17 11:20:48;;;;;;;11.00;4.85;;;;;;;;;;4783899;24;20059;-91
2023/03/17 11:23:50;;;;;;;6.80;4.95;;;13.60;99.90;;;;;;4750524;24;20155;-93
2023/03/17 11:26:26;;;;;;;7.50;4.82;;;;;;;;;;4769158;24;20059;-93
2023/03/17 11:29:14;;;;;;;6.40;4.70;;;;;;;;;;4758137;24;20047;-91
2023/03/17 11:31:58;;;;;;;6.70;4.82;;;;;;;;;;4773645;24;20063;-91
2023/03/17 11:34:32;;;;;;;7.30;5.10;;;;;;;;;;4724918;30;20064;-90
2023/03/17 11:47:40;;;;;;;8.38;5.25;;;;;;;;;;4755886;30;20059;-93
2023/03/17 11:57:43;;;;;;;;;;;;;;;;;;;;;
2023/03/17 12:05:14;;;;;;;7.28;5.18;;;;;;;;;;4772850;30;20094;-93
2023/03/17 12:07:57;;;;;;;12.23;5.32;;;;;;;;;;4744183;30;20064;-92
2023/03/17 12:10:44;;;;;;;11.35;5.70;;;;;;;;;;4742151;30;20059;-93
2023/03/17 12:13:51;;;;;;;11.95;5.45;;;;;;;;;;4742376;30;20146;-93
2023/03/17 12:16:51;;;;;;;8.70;6.18;;;15.30;99.90;;;;;;4741884;30;20060;-93
2023/03/17 12:19:37;;;;;;;11.00;5.45;;;;;;;;;;4742719;30;20059;-92
2023/03/17 12:22:20;;;;;;;7.82;4.97;;;;;;;;;;4742868;30;20063;-92
2023/03/17 12:24:46;;;;;;;9.43;5.18;;;;;;;;;;4742806;30;20062;-95
2023/03/17 12:27:20;;;;;;;7.20;5.90;;;;;;;;;;4762518;24;20062;-89
2023/03/17 12:29:53;;;;;;;9.48;5.65;;;;;;;;;;4793305;24;20066;-89
2023/03/17 12:32:49;;;;;;;;;;;;;;;;;;;;;
2023/03/17 12:35:25;;;;;;;13.70;6.28;;;;;;;;;;4769131;24;20488;-90
2023/03/17 12:58:47;;;;;;;;;;;;;;;;;;;;;
2023/03/17 13:02:37;;;;;;;;;;;;;;;;;;;;;
2023/03/17 13:05:53;;;;;;;;;;;;;;;;;;;;;
2023/03/17 13:15:34;;;;;;;7.72;6.05;;;;;;;;;;4747659;30;20066;-93
2023/03/17 13:21:45;;;;;;;10.88;6.70;;;;;;;;;;4771610;30;20070;-92
2023/03/17 13:24:17;;;;;;;13.27;7.25;;;;;;;;;;4741587;30;20056;-90
2023/03/17 13:26:50;;;;;;;8.02;6.30;;;;;;;;;;4737610;30;20197;-94
2023/03/17 13:33:23;;;;;;;;;;;;;;;;;;;;;
2023/03/17 13:41:56;;;;;;;7.25;6.00;;;15.30;99.90;;;;;;3019117;28;20067;-92
2023/03/17 13:44:50;;;;;;;9.35;7.03;;;;;;;;;;4755479;30;20071;-91
2023/03/17 13:50:43;;;;;;;;;;;;;;;;;;;;;
2023/03/17 13:53:38;;;;;;;10.20;6.25;;;;;;;;;;4768655;30;20117;-89
2023/03/17 14:05:56;;;;;;;11.68;6.78;;;15.60;99.90;;;;;;4748092;30;20054;-90
2023/03/17 14:12:19;;;;;;;9.80;7.20;;;;;;;;;;4698211;30;20064;-90
2023/03/17 14:15:15;;;;;;;10.85;6.20;;;15.70;99.90;;;;;;4727828;30;20116;-88
2023/03/17 14:17:49;;;;;;;8.98;6.90;;;15.70;99.90;;;;;;4754592;30;20162;-90
2023/03/17 14:20:14;;;;;;;;;;;15.70;99.90;;;;;;4739758;30;20494;-89
2023/03/17 14:22:43;;;;;;;10.30;6.88;;;15.60;99.90;;;;;;4754042;30;19928;-89
2023/03/17 14:25:20;;;;;;;11.55;6.88;;;15.80;99.90;;;;;;4739865;30;20067;-89
2023/03/17 14:27:59;;;;;;;15.55;8.52;;;15.90;99.90;;;;;;4753982;30;20064;-87
2023/03/17 14:30:30;;;;;;;9.45;6.78;;;15.80;99.90;;;;;;4740887;30;20060;-88
2023/03/17 14:33:06;;;;;;;11.07;6.70;;;15.90;99.90;;;;;;4739516;30;20056;-89
2023/03/17 14:35:38;;;;;;;12.98;6.97;;;;;;;;;;4739810;30;20095;-90
2023/03/17 14:38:19;;;;;;;12.55;7.82;;;15.80;99.90;;;;;;4754585;30;20100;-87
2023/03/17 14:40:58;;;;;;;9.75;6.80;;;15.90;99.90;;;;;;4743261;30;20063;-91
2023/03/17 14:43:25;;;;;;;9.40;6.95;;;;;;;;;;4743584;30;20056;-92
2023/03/17 14:45:52;;;;;;;10.18;6.15;;;;;;;;;;4758115;30;20060;-91
2023/03/17 14:48:37;;;;;;;9.82;6.78;;;;;;;;;;4758978;30;20060;-92
2023/03/17 14:51:39;;;;;;;9.70;7.25;;;15.50;99.90;;;;;;4758402;30;20093;-91
2023/03/17 14:57:31;;;;;;;;;;;;;;;;;;;;;
2023/03/17 15:20:51;;;;;;;12.35;7.15;;;;;;;;;;4803523;24;20051;-92
2023/03/17 15:23:48;;;;;;;11.60;7.63;;;;;;;;;;4973660;24;20236;-93
2023/03/17 15:33:50;;;;;;;12.98;7.18;;;15.00;99.90;;;;;;4859628;24;20059;-93
2023/03/17 15:46:03;;;;;;;14.80;8.00;;;;;;;;;;4771420;30;20060;-92
2023/03/17 16:43:44;;;;;;;;;;;;;;;;;;;;;
2023/03/17 16:46:43;;;;;;;;;;;;;;;;;;;;;
2023/03/17 16:49:28;;;;;;;17.15;11.25;;;;;;;;;;4756542;30;20135;-91
2023/03/17 16:52:36;;;;;;;24.95;13.38;;;;;;;;;;4757280;30;20055;-95
2023/03/17 16:55:13;;;;;;;;;;;;;;;;;;;;;
2023/03/17 16:57:44;;;;;;;12.85;8.45;;;;;;;;;;4757079;30;20067;-94
2023/03/17 17:00:29;;;;;;;;;;;;;;;;;;;;;
2023/03/17 17:02:56;;;;;;;10.00;8.10;;;;;;;;;;4771352;30;20071;-91
2023/03/17 17:05:26;;;;;;;10.18;7.20;;;14.50;99.90;;;;;;4741500;30;20055;-94
2023/03/17 17:07:54;;;;;;;15.25;7.95;;;;;;;;;;4756326;30;20067;-94
2023/03/17 17:10:21;;;;;;;12.45;8.20;;;;;;;;;;4744269;30;20059;-94
2023/03/17 17:12:48;;;;;;;13.90;9.15;;;;;;;;;;4746020;30;20087;-93
2023/03/17 17:15:15;;;;;;;10.57;8.02;;;;;;;;;;4759612;30;20147;-92
2023/03/17 17:17:55;;;;;;;11.18;8.52;;;14.10;99.90;;;;;;4757159;30;20067;-95
2023/03/17 17:20:32;;;;;;;13.82;8.95;;;;;;;;;;4724283;30;20083;-93
2023/03/17 17:23:15;;;;;;;12.38;9.18;;;;;;;;;;5085131;27;3118491;-93
2023/03/17 17:25:42;;;;;;;13.02;10.27;;;;;;;;;;5138154;27;20076;-93
2023/03/17 17:28:11;;;;;;;15.02;10.32;;;;;;;;;;5138771;27;20467;-94
2023/03/17 17:30:48;;;;;;;14.27;9.23;;;;;;;;;;5139143;27;20047;-92
2023/03/17 17:33:17;;;;;;;12.55;8.88;;;;;;;;;;5156186;27;20099;-93
2023/03/17 17:35:51;;;;;;;13.75;8.85;;;;;;;;;;5137223;27;20170;-89
2023/03/17 18:03:23;;;;;;;18.90;9.93;;;;;;;;;;5127524;22;20115;-91
2023/03/17 18:05:55;;;;;;;13.98;9.18;;;;;;;;;;5068687;28;20045;-89
2023/03/17 18:08:21;;;;;;;17.02;9.55;;;;;;;;;;5036788;28;20123;-91
2023/03/17 18:10:48;;;;;;;23.00;10.25;;;;;;;;;;5069126;28;20037;-92
2023/03/17 18:13:14;;;;;;;22.17;9.25;;;;;;;;;;5052254;28;20032;-90
2023/03/17 18:15:41;;;;;;;14.70;10.73;;;;;;;;;;5068385;28;20037;-89
2023/03/17 18:18:07;;;;;;;14.75;9.38;;;;;;;;;;5090788;28;20048;-92
2023/03/17 18:20:33;;;;;;;16.15;9.90;;;;;;;;;;5072398;28;20036;-89
2023/03/17 18:22:59;;;;;;;29.55;11.73;;;;;;;;;;5088898;28;20044;-89
2023/03/17 18:25:25;;;;;;;24.20;10.93;;;;;;;;;;5072139;28;20040;-90
2023/03/17 18:27:52;;;;;;;23.98;10.32;;;;;;;;;;5089006;28;20044;-90
2023/03/17 18:30:26;;;;;;;13.88;9.73;;;;;;;;;;5071840;28;20066;-89
2023/03/17 18:32:54;;;;;;;14.82;10.32;;;;;;;;;;5084047;28;20041;-90
2023/03/17 18:35:21;;;;;;;13.75;9.90;;;;;;;;;;5074788;28;20048;-90
2023/03/17 18:37:48;;;;;;;13.55;9.18;;;;;;;;;;5041817;28;20405;-89
2023/03/17 18:40:14;;;;;;;12.68;10.38;;;;;;;;;;5075241;28;20056;-91
2023/03/17 18:42:40;;;;;;;13.48;10.57;;;;;;;;;;5074730;28;20135;-90
2023/03/17 18:45:08;;;;;;;13.90;11.05;;;;;;;;;;5075137;28;20037;-89
2023/03/17 18:47:36;;;;;;;14.48;10.45;;;;;;;;;;5074763;28;20044;-90
2023/03/17 18:50:03;;;;;;;14.35;11.02;;;;;;;;;;5059702;28;20045;-87
2023/03/17 18:52:33;;;;;;;13.25;9.65;;;;;;;;;;5080642;28;20048;-88
2023/03/17 18:54:59;;;;;;;16.30;11.20;;;;;;;;;;5066338;28;20080;-89
2023/03/17 18:57:26;;;;;;;16.52;9.63;;;;;;;;;;5077155;28;20093;-89
2023/03/17 18:59:52;;;;;;;13.75;11.00;;;;;;;;;;5057866;28;20045;-89
2023/03/17 19:02:18;;;;;;;19.67;11.07;;;;;;;;;;5074193;28;20577;-90
2023/03/17 19:04:46;;;;;;;13.18;10.07;;;;;;;;;;5057966;28;20503;-89
2023/03/17 19:07:16;;;;;;;14.27;10.18;;;;;;;;;;5075719;28;20098;-90
2023/03/17 19:09:42;;;;;;;11.77;9.65;;;;;;;;;;5059543;28;20636;-91
2023/03/17 19:12:08;;;;;;;15.98;10.63;;;;;;;;;;5060027;28;20183;-91
2023/03/17 19:14:35;;;;;;;21.88;10.63;;;;;;;;;;5076295;28;20503;-91
2023/03/17 19:17:02;;;;;;;12.50;10.38;;;;;;;;;;5075895;28;20052;-91
2023/03/17 19:19:28;;;;;;;18.33;11.65;;;;;;;;;;5075536;28;20519;-90
2023/03/17 19:21:55;;;;;;;17.25;12.10;;;;;;;;;;5075121;28;20098;-91
2023/03/17 19:24:21;;;;;;;13.90;10.88;;;;;;;;;;5076150;28;20492;-91
2023/03/17 19:26:47;;;;;;;14.68;11.52;;;;;;;;;;5074939;28;20041;-90
2023/03/17 19:29:15;;;;;;;16.10;12.88;;;;;;;;;;5074937;28;20048;-90
2023/03/17 19:31:45;;;;;;;21.35;12.00;;;;;;;;;;5075435;28;20040;-91
2023/03/17 19:34:16;;;;;;;16.98;11.80;;;;;;;;;;5075383;28;20370;-91
2023/03/17 19:36:45;;;;;;;22.48;14.05;;;;;;;;;;5059101;28;20048;-92
2023/03/17 19:39:12;;;;;;;19.30;14.27;;;;;;;;;;5075772;28;20055;-91
2023/03/17 19:41:38;;;;;;;19.08;13.77;;;;;;;;;;5076182;28;20048;-91
2023/03/17 19:44:05;;;;;;;19.92;13.77;;;;;;;;;;5074841;28;20059;-91
2023/03/17 19:46:32;;;;;;;18.23;13.57;;;;;;;;;;5074335;28;20055;-90
2023/03/17 19:48:58;;;;;;;13.27;11.95;;;;;;;;;;5075362;28;20045;-91
2023/03/17 19:51:26;;;;;;;15.23;12.75;;;;;;;;;;5074499;28;20052;-91
2023/03/17 19:53:55;;;;;;;22.60;14.93;;;;;;;;;;5074350;28;20055;-91
2023/03/17 19:56:21;;;;;;;22.17;15.88;;;;;;;;;;5073839;28;20083;-91
2023/03/17 19:58:48;;;;;;;27.65;19.67;;;;;;;;;;5074726;28;20044;-90
2023/03/17 20:01:15;;;;;;;27.50;19.50;;;;;;;;;;5074155;28;20076;-91
2023/03/17 20:03:42;;;;;;;21.40;15.32;;;;;;;;;;5074042;28;20051;-90
2023/03/17 20:06:09;;;;;;;23.05;15.20;;;;;;;;;;5073861;28;20061;-90
2023/03/17 20:08:36;;;;;;;25.65;15.55;;;;;;;;;;5057568;28;20562;-91
2023/03/17 20:11:04;;;;;;;27.23;16.33;;;;;;;;;;5073778;28;20049;-90
2023/03/17 20:13:30;;;;;;;23.33;16.58;;;;;;;;;;5073726;28;20044;-90
2023/03/17 20:15:56;;;;;;;23.40;15.60;;;;;;;;;;5073885;28;20131;-90
2023/03/17 20:18:25;;;;;;;22.63;15.50;;;;;;;;;;5090434;28;20087;-90
2023/03/17 20:20:52;;;;;;;22.08;14.88;;;;;;;;;;5056891;28;20121;-90
2023/03/17 20:23:18;;;;;;;17.77;15.43;;;;;;;;;;5073853;28;20055;-91
2023/03/17 20:25:45;;;;;;;21.10;15.82;;;;;;;;;;5074294;28;20151;-91
2023/03/17 20:28:12;;;;;;;19.13;15.27;;;;;;;;;;5074591;28;20055;-90
2023/03/17 20:30:39;;;;;;;17.83;13.77;;;;;;;;;;5074470;28;20485;-90
2023/03/17 20:33:07;;;;;;;20.40;13.85;;;;;;;;;;5074706;28;20049;-91
2023/03/17 20:35:33;;;;;;;19.38;14.68;;;;;;;;;;5058153;28;20051;-91
2023/03/17 20:37:59;;;;;;;22.45;14.65;;;;;;;;;;5073691;28;20118;-90
2023/03/17 20:40:26;;;;;;;15.75;13.85;;;;;;;;;;5074245;28;20083;-90
2023/03/17 20:42:53;;;;;;;17.42;14.25;;;;;;;;;;5074360;28;20051;-90
2023/03/17 20:45:20;;;;;;;21.13;14.65;;;;;;;;;;5073521;28;20124;-91
2023/03/17 20:47:46;;;;;;;22.42;15.23;;;;;;;;;;5075019;28;20047;-91
2023/03/17 20:50:13;;;;;;;24.05;17.23;;;;;;;;;;5074074;28;20496;-92
2023/03/17 20:52:40;;;;;;;24.52;17.42;;;;;;;;;;5073756;28;20048;-90
2023/03/17 20:55:08;;;;;;;25.92;20.13;;;;;;;;;;5072983;28;20496;-90
2023/03/17 20:57:35;;;;;;;23.15;17.75;;;;;;;;;;5074070;28;20059;-90
2023/03/17 21:00:02;;;;;;;24.50;16.55;;;;;;;;;;5074298;28;20107;-91
2023/03/17 21:02:28;;;;;;;22.88;15.57;;;;;;;;;;5056795;28;20112;-91
2023/03/17 21:04:55;;;;;;;21.20;15.40;;;;;;;;;;5040218;28;20044;-91
2023/03/17 21:07:21;;;;;;;23.70;15.38;;;;;;;;;;5057326;28;20070;-91
2023/03/17 21:09:50;;;;;;;20.88;14.23;;;;;;;;;;5073839;28;20045;-90
2023/03/17 21:12:20;;;;;;;20.23;15.02;;;;;;;;;;5074258;28;20098;-91
2023/03/17 21:14:49;;;;;;;18.90;13.65;;;;;;;;;;5073073;28;20094;-90
2023/03/17 21:17:16;;;;;;;20.80;15.07;;;;;;;;;;5073461;28;20385;-91
2023/03/17 21:19:43;;;;;;;19.83;15.88;;;;;;;;;;5072813;28;20088;-91
2023/03/17 21:22:10;;;;;;;18.35;14.82;;;;;;;;;;5073978;28;20048;-91
2023/03/17 21:24:37;;;;;;;22.38;15.05;;;;;;;;;;5074258;28;20503;-91
2023/03/17 21:27:04;;;;;;;17.40;13.73;;;;;;;;;;5074049;28;20049;-91
2023/03/17 21:29:32;;;;;;;20.70;15.45;;;;;;;;;;5073229;28;20047;-90
2023/03/17 21:31:59;;;;;;;20.02;13.93;;;;;;;;;;5072954;28;20544;-91
2023/03/17 21:34:26;;;;;;;18.83;13.75;;;;;;;;;;5073320;28;20040;-91
2023/03/17 21:36:53;;;;;;;19.05;14.57;;;;;;;;;;5073292;28;20048;-90
2023/03/17 21:39:19;;;;;;;19.15;14.68;;;;;;;;;;5073302;28;20047;-91
2023/03/17 21:41:47;;;;;;;19.60;14.02;;;;;;;;;;5072772;28;20128;-90
2023/03/17 21:44:14;;;;;;;19.80;14.50;;;;;;;;;;5073863;28;20178;-91
2023/03/17 21:46:43;;;;;;;20.15;14.32;;;;;;;;;;5074353;28;20049;-90
2023/03/17 21:49:10;;;;;;;17.75;13.68;;;;;;;;;;5073359;28;20041;-90
2023/03/17 21:51:36;;;;;;;19.67;14.43;;;;;;;;;;5073788;28;20045;-90
2023/03/17 21:54:04;;;;;;;22.52;13.55;;;;;;;;;;5073808;28;20080;-90
2023/03/17 21:56:31;;;;;;;18.60;13.45;;;;;;;;;;5072958;28;20047;-89
2023/03/17 21:58:57;;;;;;;18.48;14.90;;;;;;;;;;5074091;28;20036;-90
2023/03/17 22:01:23;;;;;;;27.02;14.52;;;;;;;;;;5073313;28;20045;-90
2023/03/17 22:03:53;;;;;;;21.33;14.32;;;;;;;;;;5090013;28;20067;-90
2023/03/17 22:06:20;;;;;;;21.30;14.13;;;;;;;;;;5073760;28;20458;-91
2023/03/17 22:08:47;;;;;;;25.38;16.20;;;;;;;;;;5075117;28;20515;-91
2023/03/17 22:11:15;;;;;;;19.25;14.25;;;;;;;;;;5077240;28;20080;-91
2023/03/17 22:13:42;;;;;;;22.77;15.68;;;;;;;;;;5076830;28;20041;-90
2023/03/17 22:16:08;;;;;;;23.17;14.15;;;;;;;;;;5077122;28;20477;-89
2023/03/17 22:18:35;;;;;;;21.80;15.57;;;;;;;;;;5076876;28;20074;-90
2023/03/17 22:21:02;;;;;;;20.17;13.68;;;;;;;;;;5076798;28;20127;-90
2023/03/17 22:23:29;;;;;;;20.52;13.98;;;;;;;;;;5076404;28;20056;-90
2023/03/17 22:25:56;;;;;;;21.40;14.90;;;;;;;;;;5076456;28;20060;-90
2023/03/17 22:28:23;;;;;;;17.92;13.73;;;;;;;;;;5076333;28;20060;-91
2023/03/17 22:30:50;;;;;;;16.35;13.27;;;;;;;;;;5077413;28;20036;-91
2023/03/17 22:33:17;;;;;;;17.42;14.82;;;;;;;;;;5076513;28;20098;-91
2023/03/17 22:35:43;;;;;;;21.25;15.07;;;;;;;;;;5076146;28;20054;-91
2023/03/17 22:38:11;;;;;;;20.52;15.07;;;;;;;;;;5076602;28;20086;-91
2023/03/17 22:40:37;;;;;;;19.85;14.13;;;;;;;;;;5076529;28;20115;-91
2023/03/17 22:43:03;;;;;;;20.52;14.93;;;;;;;;;;5076280;28;20426;-91
2023/03/17 22:45:30;;;;;;;17.05;14.90;;;;;;;;;;5059862;28;20101;-91
2023/03/17 22:47:56;;;;;;;17.48;14.75;;;;;;;;;;5076671;28;20127;-91
2023/03/17 22:50:24;;;;;;;20.58;15.93;;;;;;;;;;5076278;28;20395;-90
2023/03/17 22:52:50;;;;;;;18.63;13.55;;;;;;;;;;5076655;28;20043;-91
2023/03/17 22:55:17;;;;;;;18.92;13.63;;;;;;;;;;5076013;28;20040;-90
2023/03/17 22:57:46;;;;;;;16.52;13.15;;;;;;;;;;5076227;28;20480;-90
2023/03/17 23:00:15;;;;;;;16.85;13.27;;;;;;;;;;5076124;28;20128;-91
2023/03/17 23:02:42;;;;;;;15.95;13.10;;;;;;;;;;5075606;28;20048;-90
2023/03/17 23:05:08;;;;;;;16.23;13.27;;;;;;;;;;5076157;28;20049;-91
2023/03/17 23:07:35;;;;;;;23.90;13.60;;;;;;;;;;5075576;28;20041;-90
2023/03/17 23:10:03;;;;;;;17.70;13.27;;;;;;;;;;5042946;28;20041;-91
2023/03/17 23:12:29;;;;;;;20.80;13.95;;;;;;;;;;5074878;28;20055;-90
2023/03/17 23:14:56;;;;;;;18.85;13.68;;;;;;;;;;5074434;28;20075;-90
2023/03/17 23:17:22;;;;;;;21.80;13.68;;;;;;;;;;5075386;28;20431;-89
2023/03/17 23:19:48;;;;;;;19.38;14.38;;;;;;;;;;5073943;28;20071;-90
2023/03/17 23:22:14;;;;;;;20.20;13.18;;;;;;;;;;5073689;28;20395;-89
2023/03/17 23:24:40;;;;;;;20.55;13.88;;;;;;;;;;5057595;28;20037;-89
2023/03/17 23:27:06;;;;;;;19.75;13.90;;;;;;;;;;5073793;28;20041;-89
2023/03/17 23:29:32;;;;;;;18.35;12.10;;;;;;;;;;5058340;28;20435;-89
2023/03/17 23:31:59;;;;;;;17.83;12.57;;;;;;;;;;5057368;28;20513;-90
2023/03/17 23:34:25;;;;;;;15.85;12.80;;;;;;;;;;5074047;28;20052;-89
2023/03/17 23:36:52;;;;;;;17.77;13.25;;;;;;;;;;5074843;28;20099;-89
2023/03/17 23:39:18;;;;;;;18.15;13.32;;;;;;;;;;5074482;28;20053;-90
2023/03/17 23:41:44;;;;;;;19.83;12.40;;;;;;;;;;5057181;28;20044;-91
2023/03/17 23:44:10;;;;;;;17.42;12.35;;;;;;;;;;5057359;28;20044;-90
2023/03/17 23:46:37;;;;;;;18.73;12.73;;;;;;;;;;5057775;28;20048;-89
2023/03/17 23:49:06;;;;;;;19.17;11.88;;;;;;;;;;5073331;28;20496;-89
2023/03/17 23:51:32;;;;;;;15.85;11.70;;;;;;;;;;5073839;28;20369;-89
2023/03/17 23:53:58;;;;;;;17.55;12.40;;;;;;;;;;5073341;28;20041;-89
2023/03/17 23:56:24;;;;;;;17.13;13.68;;;;;;;;;;5073340;28;20041;-90
2023/03/17 23:58:51;;;;;;;22.45;12.27;;;;;;;;;;5074171;28;20500;-90
